Terminal Aerodrome Forecast
Issued by NWS

Home | Current Version | Previous Version | Text Only | Print | Product List | Glossary On
Versions: 1 2 3 4 5 6 7 8 9 10 11 12 13 14 15 16 17
000
FTUS45 KRIW 270538
TAFPNA
TAF
KPNA 270538Z 2706/2806 33006KT 3SM -SHSN SCT012 OVC020
     FM270900 29011KT 2SM -SHSN OVC010
     FM271500 30022G30KT 4SM -SHSN OVC030
     FM280100 31014KT P6SM VCSH BKN035
      AMD LTD TO CLD VIS AND WIND=

USA.gov is the U.S. government's official web portal to all federal, state and local government web resources and services.